createdAt,value
2023-08-03T00:00:38.230Z,5.45
2023-08-03T00:03:09.277Z,5.80
2023-08-03T00:05:37.436Z,5.47
2023-08-03T00:08:05.643Z,6.03
2023-08-03T00:10:36.497Z,5.65
2023-08-03T00:13:04.204Z,5.70
2023-08-03T00:15:32.414Z,5.43
2023-08-03T00:18:01.660Z,6.20
2023-08-03T00:20:29.756Z,5.93
2023-08-03T00:22:57.757Z,6.22
2023-08-03T00:25:26.213Z,6.55
2023-08-03T00:27:54.265Z,6.35
2023-08-03T00:30:21.870Z,5.95
2023-08-03T00:32:49.515Z,6.15
2023-08-03T00:35:17.144Z,5.57
2023-08-03T00:37:45.469Z,6.07
2023-08-03T00:40:13.673Z,5.93
2023-08-03T00:42:41.310Z,6.20
2023-08-03T00:45:12.248Z,5.50
2023-08-03T00:47:40.796Z,5.25
2023-08-03T00:50:09.684Z,5.20
2023-08-03T00:52:39.801Z,6.15
2023-08-03T00:55:08.218Z,5.85
2023-08-03T00:57:35.950Z,6.00
2023-08-03T01:00:04.200Z,5.72
2023-08-03T01:02:33.657Z,5.90
2023-08-03T01:05:03.209Z,6.47
2023-08-03T01:07:31.170Z,5.45
2023-08-03T01:09:58.798Z,5.90
2023-08-03T01:12:28.697Z,6.30
2023-08-03T01:14:56.431Z,6.40
2023-08-03T01:17:25.985Z,6.70
2023-08-03T01:19:54.181Z,6.00
2023-08-03T01:22:22.833Z,6.18
2023-08-03T01:24:50.861Z,6.65
2023-08-03T01:27:18.582Z,6.68
2023-08-03T01:29:46.208Z,6.27
2023-08-03T01:32:16.764Z,5.90
2023-08-03T01:34:44.384Z,5.63
2023-08-03T01:37:12.368Z,6.18
2023-08-03T01:39:46.210Z,5.32
2023-08-03T01:42:15.017Z,5.90
2023-08-03T01:44:43.614Z,5.80
2023-08-03T01:47:11.266Z,5.72
2023-08-03T01:49:38.841Z,6.18
2023-08-03T01:52:06.631Z,6.10
2023-08-03T01:54:34.199Z,5.45
2023-08-03T01:57:01.817Z,5.55
2023-08-03T01:59:29.910Z,7.18
2023-08-03T02:01:57.690Z,6.22
2023-08-03T02:04:25.270Z,6.10
2023-08-03T02:06:58.339Z,5.95
2023-08-03T02:09:26.382Z,5.70
2023-08-03T02:11:54.399Z,6.07
2023-08-03T02:14:22.392Z,6.88
2023-08-03T02:16:50.447Z,6.28
2023-08-03T02:19:18.094Z,6.90
2023-08-03T02:21:45.874Z,6.65
2023-08-03T02:24:14.046Z,6.38
2023-08-03T02:26:41.595Z,7.93
2023-08-03T02:29:09.337Z,6.60
2023-08-03T02:31:37.357Z,7.28
2023-08-03T02:34:05.458Z,7.63
2023-08-03T02:36:40.053Z,7.93
2023-08-03T02:39:11.180Z,8.25
2023-08-03T02:41:43.421Z,8.48
2023-08-03T02:44:16.937Z,8.60
2023-08-03T02:46:49.436Z,8.57
2023-08-03T02:49:17.028Z,8.50
2023-08-03T02:51:45.777Z,7.82
2023-08-03T02:54:15.381Z,8.90
2023-08-03T02:56:47.166Z,9.18
2023-08-03T02:59:19.696Z,10.68
2023-08-03T03:01:48.238Z,10.50
2023-08-03T03:04:19.259Z,9.60
2023-08-03T03:06:49.297Z,10.48
2023-08-03T03:09:17.148Z,10.07
2023-08-03T03:11:48.369Z,9.17
2023-08-03T03:14:17.133Z,9.85
2023-08-03T03:16:45.049Z,9.32
2023-08-03T03:19:12.671Z,9.07
2023-08-03T03:21:42.198Z,8.23
2023-08-03T03:24:10.324Z,8.43
2023-08-03T03:26:37.857Z,8.15
2023-08-03T03:29:05.439Z,7.67
2023-08-03T03:31:34.031Z,7.35
2023-08-03T03:34:04.783Z,7.75
2023-08-03T03:36:34.452Z,7.15
2023-08-03T03:39:02.574Z,7.70
2023-08-03T03:41:30.250Z,6.57
2023-08-03T03:43:58.319Z,6.78
2023-08-03T03:46:26.459Z,5.93
2023-08-03T03:48:54.759Z,7.25
2023-08-03T03:51:22.979Z,6.80
2023-08-03T03:53:54.713Z,6.68
2023-08-03T03:56:22.671Z,5.63
2023-08-03T03:58:50.316Z,6.18
2023-08-03T04:01:18.900Z,6.28
2023-08-03T04:03:50.668Z,5.97
2023-08-03T04:06:18.927Z,5.73
2023-08-03T04:08:47.185Z,6.60
2023-08-03T04:11:15.170Z,5.80
2023-08-03T04:13:42.686Z,6.05
2023-08-03T04:16:10.353Z,6.45
2023-08-03T04:18:37.945Z,6.25
2023-08-03T04:21:05.696Z,5.80
2023-08-03T04:23:33.243Z,6.40
2023-08-03T04:26:04.480Z,5.97
2023-08-03T04:28:32.995Z,5.65
2023-08-03T04:31:00.606Z,5.67
2023-08-03T04:33:29.520Z,6.43
2023-08-03T04:36:01.353Z,5.85
2023-08-03T04:38:34.144Z,5.32
2023-08-03T04:41:04.527Z,5.63
2023-08-03T04:43:35.915Z,5.82
2023-08-03T04:46:03.890Z,6.00
2023-08-03T04:48:31.466Z,5.68
2023-08-03T04:51:02.357Z,5.95
2023-08-03T04:53:29.944Z,5.63
2023-08-03T04:55:58.047Z,5.63
2023-08-03T04:58:25.743Z,5.40
2023-08-03T05:00:53.560Z,5.18
2023-08-03T05:03:21.770Z,5.15
2023-08-03T05:05:49.344Z,5.28
2023-08-03T05:08:23.908Z,4.80
2023-08-03T05:10:52.628Z,5.25
2023-08-03T05:13:22.447Z,4.78
2023-08-03T05:15:50.081Z,5.05
2023-08-03T05:18:18.175Z,5.38
2023-08-03T05:20:45.945Z,5.20
2023-08-03T05:23:13.937Z,4.90
2023-08-03T05:25:41.859Z,5.18
2023-08-03T05:28:09.444Z,5.38
2023-08-03T05:30:37.733Z,5.30
2023-08-03T05:33:05.408Z,5.15
2023-08-03T05:35:33.060Z,4.73
2023-08-03T05:38:00.656Z,5.10
2023-08-03T05:40:28.501Z,4.93
2023-08-03T05:42:56.464Z,5.25
2023-08-03T05:45:54.471Z,5.15
2023-08-03T05:48:22.357Z,4.85
2023-08-03T05:50:52.157Z,4.60
2023-08-03T05:53:19.985Z,4.53
2023-08-03T05:55:57.645Z,5.70
2023-08-03T05:58:38.186Z,4.93
2023-08-03T06:01:06.683Z,5.45
2023-08-03T06:03:37.760Z,4.97
2023-08-03T06:06:06.325Z,5.03
2023-08-03T06:08:34.183Z,5.03
2023-08-03T06:11:05.715Z,4.82
2023-08-03T06:13:37.212Z,4.10
2023-08-03T06:16:13.174Z,4.97
2023-08-03T06:18:49.732Z,5.20
2023-08-03T06:21:18.705Z,4.82
2023-08-03T06:23:51.983Z,4.60
2023-08-03T06:26:23.138Z,5.03
2023-08-03T06:28:55.365Z,6.17
2023-08-03T06:31:36.812Z,5.50
2023-08-03T06:34:06.001Z,6.63
2023-08-03T06:36:37.000Z,6.18
2023-08-03T06:39:05.404Z,6.88
2023-08-03T06:41:33.342Z,5.28
2023-08-03T06:44:01.566Z,5.32
2023-08-03T06:46:29.501Z,5.85
2023-08-03T06:48:58.186Z,5.97
2023-08-03T06:51:26.671Z,5.97
2023-08-03T06:53:54.731Z,5.60
2023-08-03T06:56:22.638Z,5.40
2023-08-03T06:58:50.158Z,4.93
2023-08-03T07:01:18.275Z,4.57
2023-08-03T07:03:46.459Z,5.68
2023-08-03T07:06:14.524Z,5.50
2023-08-03T07:08:42.104Z,5.22
2023-08-03T07:11:09.993Z,5.32
2023-08-03T07:13:37.559Z,5.25
2023-08-03T07:16:09.994Z,5.10
2023-08-03T07:18:37.840Z,5.72
2023-08-03T07:21:06.397Z,6.25
2023-08-03T07:23:34.845Z,6.07
2023-08-03T07:26:02.605Z,6.40
2023-08-03T07:28:30.717Z,5.88
2023-08-03T07:30:58.682Z,4.82
2023-08-03T07:33:27.786Z,6.22
2023-08-03T07:35:55.799Z,5.00
2023-08-03T07:38:24.090Z,5.75
2023-08-03T07:40:52.436Z,6.60
2023-08-03T07:43:20.009Z,6.72
2023-08-03T07:48:18.949Z,6.50
2023-08-03T07:50:47.525Z,5.93
2023-08-03T07:53:16.125Z,5.10
2023-08-03T07:55:43.660Z,5.97
2023-08-03T07:58:13.437Z,5.80
2023-08-03T08:00:41.053Z,5.72
2023-08-03T08:03:08.678Z,5.80
2023-08-03T08:05:36.335Z,6.00
2023-08-03T08:08:04.311Z,5.35
2023-08-03T08:10:32.463Z,5.88
2023-08-03T08:13:00.507Z,6.28
2023-08-03T08:15:29.534Z,6.05
2023-08-03T08:17:57.653Z,5.72
2023-08-03T08:20:25.895Z,5.80
2023-08-03T08:22:54.362Z,6.10
2023-08-03T08:25:22.152Z,6.25
2023-08-03T08:27:50.320Z,5.97
2023-08-03T08:30:18.582Z,6.47
2023-08-03T08:32:46.566Z,5.50
2023-08-03T08:35:14.808Z,6.07
2023-08-03T08:37:42.433Z,6.40
2023-08-03T08:40:14.566Z,5.85
2023-08-03T08:42:42.377Z,6.30
2023-08-03T08:45:12.410Z,6.05
2023-08-03T08:47:41.374Z,6.25
2023-08-03T08:56:05.538Z,6.38
2023-08-03T09:00:44.474Z,5.75
2023-08-03T09:03:14.456Z,5.88
2023-08-03T09:08:15.647Z,5.97
2023-08-03T09:10:54.471Z,6.20
2023-08-03T09:13:36.456Z,6.07
2023-08-03T09:16:04.703Z,6.23
2023-08-03T09:18:33.692Z,5.32
2023-08-03T09:28:55.212Z,5.20
2023-08-03T09:31:29.184Z,4.82
2023-08-03T09:33:59.541Z,4.25
2023-08-03T09:44:17.725Z,4.43
2023-08-03T09:46:50.431Z,4.07
2023-08-03T09:49:18.589Z,4.18
2023-08-03T09:59:49.145Z,3.40
2023-08-03T10:02:24.521Z,3.33
2023-08-03T10:04:58.738Z,3.97
2023-08-03T10:07:37.471Z,4.22
2023-08-03T10:10:06.317Z,3.85
2023-08-03T10:12:45.420Z,3.70
2023-08-03T10:15:17.429Z,4.00
2023-08-03T10:17:47.393Z,3.38
2023-08-03T10:20:16.082Z,3.47
2023-08-03T10:23:10.044Z,3.20
2023-08-03T10:26:02.074Z,2.92
2023-08-03T10:28:39.393Z,3.78
2023-08-03T10:31:17.618Z,3.20
2023-08-03T10:33:47.765Z,3.33
2023-08-03T10:36:27.494Z,3.55
2023-08-03T10:38:56.720Z,3.33
2023-08-03T10:41:37.709Z,3.13
2023-08-03T10:44:08.528Z,3.15
2023-08-03T10:46:42.364Z,3.42
2023-08-03T10:49:20.522Z,3.35
2023-08-03T10:51:55.768Z,3.17
2023-08-03T10:54:30.444Z,3.28
2023-08-03T10:57:15.168Z,3.53
2023-08-03T10:59:47.362Z,3.28
2023-08-03T11:02:31.039Z,3.40
2023-08-03T11:05:03.780Z,3.60
2023-08-03T11:07:39.260Z,3.38
2023-08-03T11:10:12.385Z,3.35
2023-08-03T11:12:42.437Z,3.13
2023-08-03T11:15:15.485Z,3.35
2023-08-03T11:17:49.122Z,3.35
2023-08-03T11:20:16.798Z,3.17
2023-08-03T11:22:44.831Z,3.00
2023-08-03T11:25:13.433Z,3.25
2023-08-03T11:27:42.001Z,3.40
2023-08-03T11:30:10.390Z,3.08
2023-08-03T11:32:40.002Z,3.30
2023-08-03T11:35:10.901Z,3.30
2023-08-03T11:37:40.209Z,3.42
2023-08-03T11:40:10.500Z,3.45
2023-08-03T11:42:41.101Z,3.00
2023-08-03T11:45:09.399Z,2.90
2023-08-03T11:47:48.402Z,3.47
2023-08-03T11:50:22.046Z,3.30
2023-08-03T11:52:50.250Z,3.42
2023-08-03T11:55:34.006Z,3.22
2023-08-03T11:58:12.832Z,3.03
2023-08-03T12:00:43.998Z,3.20
2023-08-03T12:03:19.687Z,2.88
2023-08-03T12:06:07.369Z,2.90
2023-08-03T12:08:48.839Z,2.95
2023-08-03T12:11:18.233Z,3.07
2023-08-03T12:13:47.787Z,3.17
2023-08-03T12:16:15.754Z,2.80
2023-08-03T12:18:43.772Z,3.05
2023-08-03T12:21:11.428Z,2.50
2023-08-03T12:23:39.020Z,3.45
2023-08-03T12:26:08.996Z,3.15
2023-08-03T12:28:36.589Z,4.47
2023-08-03T12:31:04.662Z,3.08
2023-08-03T12:33:32.424Z,3.42
2023-08-03T12:36:00.134Z,3.22
2023-08-03T12:38:27.765Z,3.20
2023-08-03T12:40:55.749Z,3.00
2023-08-03T12:43:23.372Z,2.83
2023-08-03T12:45:51.039Z,3.13
2023-08-03T12:48:18.962Z,2.77
2023-08-03T12:50:46.962Z,2.72
2023-08-03T12:53:15.666Z,3.63
2023-08-03T12:55:43.713Z,3.08
2023-08-03T12:58:12.761Z,3.40
2023-08-03T13:00:40.400Z,3.38
2023-08-03T13:03:08.038Z,2.97
2023-08-03T13:05:38.616Z,2.80
2023-08-03T13:08:07.140Z,3.53
2023-08-03T13:10:35.313Z,3.20
2023-08-03T13:13:03.378Z,3.28
2023-08-03T13:15:31.641Z,2.90
2023-08-03T13:18:01.000Z,2.83
2023-08-03T13:20:29.020Z,3.13
2023-08-03T13:22:57.884Z,3.20
2023-08-03T13:25:26.258Z,2.97
2023-08-03T13:27:53.824Z,3.80
2023-08-03T13:30:21.787Z,2.85
2023-08-03T13:32:49.533Z,3.33
2023-08-03T13:35:18.016Z,2.90
2023-08-03T13:37:46.538Z,3.25
2023-08-03T13:40:15.733Z,3.17
2023-08-03T13:42:43.724Z,2.95
2023-08-03T13:45:11.812Z,2.67
2023-08-03T13:47:41.668Z,2.93
2023-08-03T13:50:10.102Z,2.83
2023-08-03T13:52:38.057Z,2.70
2023-08-03T13:55:06.164Z,2.50
2023-08-03T13:57:35.727Z,9.48
2023-08-03T14:00:05.103Z,2.47
2023-08-03T14:05:06.664Z,2.40
2023-08-03T14:22:43.784Z,1.63
2023-08-03T14:30:20.364Z,1.87
2023-08-03T14:32:49.606Z,2.00
2023-08-03T14:37:49.106Z,1.95
2023-08-03T14:40:16.818Z,2.35
2023-08-03T14:42:55.441Z,2.05
2023-08-03T14:45:35.134Z,1.80
2023-08-03T14:48:06.667Z,2.13
2023-08-03T14:50:35.653Z,2.00
2023-08-03T14:53:03.935Z,2.05
2023-08-03T14:55:32.475Z,2.33
2023-08-03T14:58:00.071Z,2.50
2023-08-03T15:00:28.233Z,2.80
2023-08-03T15:02:56.319Z,3.25
2023-08-03T15:05:24.538Z,1.90
2023-08-03T15:07:53.397Z,2.10
2023-08-03T15:10:20.973Z,2.03
2023-08-03T15:12:48.533Z,2.00
2023-08-03T15:15:17.413Z,1.97
2023-08-03T15:17:47.923Z,2.20
2023-08-03T15:20:31.654Z,2.15
2023-08-03T15:23:03.745Z,2.10
2023-08-03T15:25:32.337Z,2.00
2023-08-03T15:28:02.278Z,2.10
2023-08-03T15:30:59.209Z,1.90
2023-08-03T15:33:21.379Z,2.10
2023-08-03T15:35:49.827Z,1.90
2023-08-03T15:38:20.761Z,2.20
2023-08-03T15:41:01.795Z,2.55
2023-08-03T15:43:37.425Z,4.80
2023-08-03T15:46:12.186Z,3.08
2023-08-03T15:49:03.295Z,3.28
2023-08-03T15:51:37.125Z,2.22
2023-08-03T15:54:10.755Z,2.38
2023-08-03T15:56:43.149Z,2.20
2023-08-03T15:59:11.700Z,1.80
2023-08-03T16:01:40.012Z,2.10
2023-08-03T16:04:07.769Z,1.90
2023-08-03T16:06:35.969Z,2.70
2023-08-03T16:09:04.609Z,3.42
2023-08-03T16:11:51.543Z,2.88
2023-08-03T16:14:20.819Z,2.60
2023-08-03T16:16:50.089Z,2.33
2023-08-03T16:19:18.554Z,2.40
2023-08-03T16:21:46.176Z,2.10
2023-08-03T16:24:14.281Z,2.60
2023-08-03T16:26:42.575Z,2.45
2023-08-03T16:29:10.138Z,2.28
2023-08-03T16:31:39.143Z,2.40
2023-08-03T16:34:12.388Z,2.33
2023-08-03T16:36:42.268Z,2.42
2023-08-03T16:39:10.843Z,2.20
2023-08-03T16:41:39.125Z,1.92
2023-08-03T16:44:07.152Z,2.47
2023-08-03T16:46:34.776Z,2.30
2023-08-03T16:49:02.365Z,2.22
2023-08-03T16:51:30.350Z,2.20
2023-08-03T16:54:00.666Z,2.28
2023-08-03T16:56:28.805Z,2.50
2023-08-03T16:58:56.364Z,2.60
2023-08-03T17:01:24.419Z,1.80
2023-08-03T17:03:52.023Z,2.03
2023-08-03T17:06:20.167Z,2.35
2023-08-03T17:08:47.784Z,2.70
2023-08-03T17:11:15.524Z,2.63
2023-08-03T17:13:43.586Z,2.70
2023-08-03T17:16:11.940Z,1.88
2023-08-03T17:18:40.479Z,2.15
2023-08-03T17:21:08.384Z,2.72
2023-08-03T17:23:36.492Z,2.78
2023-08-03T17:26:04.118Z,2.20
2023-08-03T17:28:32.499Z,2.45
2023-08-03T17:31:05.081Z,2.67
2023-08-03T17:33:33.370Z,2.75
2023-08-03T17:36:09.274Z,2.45
2023-08-03T17:38:37.390Z,2.33
2023-08-03T17:41:05.103Z,2.63
2023-08-03T17:43:32.980Z,2.28
2023-08-03T17:46:08.245Z,2.40
2023-08-03T17:48:36.427Z,2.38
2023-08-03T17:51:11.208Z,2.50
2023-08-03T17:53:41.132Z,2.58
2023-08-03T17:56:10.623Z,2.33
2023-08-03T17:58:45.873Z,2.22
2023-08-03T18:01:23.972Z,2.17
2023-08-03T18:03:52.484Z,2.20
2023-08-03T18:06:25.409Z,2.10
2023-08-03T18:08:54.522Z,2.37
2023-08-03T18:11:22.655Z,2.40
2023-08-03T18:13:52.324Z,2.50
2023-08-03T18:16:20.637Z,2.20
2023-08-03T18:18:49.923Z,2.10
2023-08-03T18:21:23.633Z,2.30
2023-08-03T18:23:55.626Z,2.78
2023-08-03T18:26:25.462Z,2.70
2023-08-03T18:28:56.377Z,2.70
2023-08-03T18:31:24.579Z,2.75
2023-08-03T18:33:53.814Z,2.60
2023-08-03T18:36:22.001Z,2.30
2023-08-03T18:38:51.863Z,2.50
2023-08-03T18:41:21.564Z,2.15
2023-08-03T18:43:51.101Z,2.20
2023-08-03T18:46:21.973Z,2.45
2023-08-03T18:48:50.219Z,2.10
2023-08-03T18:51:20.286Z,2.33
2023-08-03T18:53:50.061Z,2.45
2023-08-03T18:56:18.758Z,1.98
2023-08-03T18:58:48.480Z,2.00
2023-08-03T19:01:17.680Z,2.00
2023-08-03T19:03:47.493Z,2.13
2023-08-03T19:06:17.973Z,2.30
2023-08-03T19:08:47.822Z,2.75
2023-08-03T19:11:16.735Z,2.55
2023-08-03T19:13:45.246Z,2.35
2023-08-03T19:16:13.284Z,2.30
2023-08-03T19:18:43.830Z,2.20
2023-08-03T19:21:13.203Z,2.83
2023-08-03T19:23:41.323Z,2.35
2023-08-03T19:26:11.425Z,2.25
2023-08-03T19:28:39.324Z,2.40
2023-08-03T19:31:07.541Z,2.63
2023-08-03T19:33:36.279Z,2.20
2023-08-03T19:36:04.556Z,2.50
2023-08-03T19:38:32.753Z,2.38
2023-08-03T19:41:01.024Z,2.30
2023-08-03T19:43:29.527Z,2.30
2023-08-03T19:45:57.179Z,2.40
2023-08-03T19:48:26.392Z,2.53
2023-08-03T19:59:31.640Z,2.00
2023-08-03T20:06:16.098Z,2.40
2023-08-03T20:11:14.980Z,2.17
2023-08-03T20:16:41.284Z,2.17
2023-08-03T20:21:32.157Z,2.50
2023-08-03T20:23:59.824Z,2.72
2023-08-03T20:26:35.562Z,2.38
2023-08-03T20:29:05.794Z,2.40
2023-08-03T20:31:35.138Z,2.05
2023-08-03T20:36:34.855Z,2.35
2023-08-03T20:49:06.933Z,2.38
2023-08-03T20:51:35.768Z,2.25
2023-08-03T20:56:52.054Z,2.10
2023-08-03T20:59:19.686Z,1.90
2023-08-03T21:01:47.932Z,2.42
2023-08-03T21:04:15.868Z,2.22
2023-08-03T21:06:44.796Z,2.55
2023-08-03T21:09:12.385Z,1.92
2023-08-03T21:11:40.068Z,2.80
2023-08-03T21:14:08.779Z,2.38
2023-08-03T21:16:36.934Z,3.03
2023-08-03T21:21:36.385Z,2.40
2023-08-03T21:24:09.346Z,2.50
2023-08-03T21:26:39.745Z,2.55
2023-08-03T21:29:08.265Z,2.35
2023-08-03T21:31:39.351Z,2.55
2023-08-03T21:34:08.028Z,2.63
2023-08-03T21:36:36.250Z,2.70
2023-08-03T21:39:05.107Z,2.60
2023-08-03T21:41:32.995Z,2.55
2023-08-03T21:44:01.078Z,2.25
2023-08-03T21:46:28.888Z,2.42
2023-08-03T21:48:56.919Z,2.13
2023-08-03T21:51:24.851Z,2.92
2023-08-03T21:53:52.348Z,2.60
2023-08-03T21:56:20.754Z,2.45
2023-08-03T21:58:50.313Z,2.45
2023-08-03T22:01:18.160Z,2.10
2023-08-03T22:03:46.240Z,1.87
2023-08-03T22:06:13.918Z,2.03
2023-08-03T22:08:41.497Z,2.28
2023-08-03T22:11:15.795Z,2.38
2023-08-03T22:13:45.079Z,2.30
2023-08-03T22:16:12.896Z,2.15
2023-08-03T22:18:41.463Z,2.97
2023-08-03T22:21:10.458Z,2.80
2023-08-03T22:23:39.571Z,2.25
2023-08-03T22:26:17.784Z,2.60
2023-08-03T22:28:47.058Z,2.67
2023-08-03T22:31:15.319Z,2.60
2023-08-03T22:33:43.552Z,2.40
2023-08-03T22:36:13.858Z,2.17
2023-08-03T22:38:46.161Z,2.20
2023-08-03T22:41:14.616Z,2.42
2023-08-03T22:43:42.323Z,2.37
2023-08-03T22:46:10.063Z,2.20
2023-08-03T22:48:38.137Z,2.78
2023-08-03T22:51:06.147Z,1.80
2023-08-03T22:53:33.666Z,2.25
2023-08-03T22:56:03.644Z,2.45
2023-08-03T22:58:32.945Z,2.30
2023-08-03T23:01:00.555Z,2.38
2023-08-03T23:03:29.476Z,2.10
2023-08-03T23:05:57.237Z,2.80
2023-08-03T23:08:26.121Z,2.40
2023-08-03T23:10:54.246Z,2.28
2023-08-03T23:13:23.125Z,2.47
2023-08-03T23:15:51.223Z,2.35
2023-08-03T23:18:18.773Z,2.70
2023-08-03T23:20:46.383Z,2.13
2023-08-03T23:23:14.475Z,2.80
2023-08-03T23:25:42.536Z,2.40
2023-08-03T23:28:10.850Z,2.42
2023-08-03T23:30:38.484Z,2.78
2023-08-03T23:33:06.697Z,2.00
2023-08-03T23:35:34.322Z,2.30
2023-08-03T23:38:02.338Z,2.80
2023-08-03T23:40:30.418Z,2.10
2023-08-03T23:42:58.430Z,1.95
2023-08-03T23:45:26.468Z,2.40
2023-08-03T23:47:54.962Z,2.90
2023-08-03T23:50:23.470Z,2.30
2023-08-03T23:52:51.097Z,2.77
2023-08-03T23:55:18.835Z,2.20
2023-08-03T23:57:46.927Z,2.58
